createdAt,value
2023-03-27T00:03:31.853Z,0.52
2023-03-27T00:07:32.056Z,0.52
2023-03-27T00:11:31.688Z,0.52
2023-03-27T00:15:31.678Z,0.52
2023-03-27T00:19:32.068Z,0.52
2023-03-27T00:23:32.072Z,0.51
2023-03-27T00:27:31.571Z,0.51
2023-03-27T00:31:31.619Z,0.52
2023-03-27T00:35:31.600Z,0.52
2023-03-27T00:39:31.461Z,0.52
2023-03-27T00:43:31.581Z,0.51
2023-03-27T00:47:31.621Z,0.52
2023-03-27T00:51:31.332Z,0.52
2023-03-27T00:55:31.577Z,0.51
2023-03-27T00:59:31.674Z,0.52
2023-03-27T01:03:31.692Z,0.51
2023-03-27T01:07:31.314Z,0.52
2023-03-27T01:11:31.573Z,0.51
2023-03-27T01:15:31.563Z,0.52
2023-03-27T01:19:31.573Z,0.51
2023-03-27T01:23:58.561Z,0.51
2023-03-27T01:27:32.469Z,0.51
2023-03-27T01:31:31.612Z,0.51
2023-03-27T01:35:31.626Z,0.52
2023-03-27T01:39:31.350Z,0.52
2023-03-27T01:43:31.608Z,0.51
2023-03-27T01:47:31.342Z,0.51
2023-03-27T01:51:31.583Z,0.52
2023-03-27T01:55:31.623Z,0.52
2023-03-27T01:59:31.594Z,0.52
2023-03-27T02:03:31.475Z,0.51
2023-03-27T02:07:31.581Z,0.52
2023-03-27T02:11:31.578Z,0.52
2023-03-27T02:15:32.117Z,0.51
2023-03-27T02:19:32.099Z,0.52
2023-03-27T02:23:31.679Z,0.52
2023-03-27T02:27:32.098Z,0.51
2023-03-27T02:31:34.398Z,0.51
2023-03-27T02:35:32.122Z,0.52
2023-03-27T02:39:31.692Z,0.51
2023-03-27T02:43:31.636Z,0.53
2023-03-27T02:47:32.191Z,0.52
2023-03-27T02:51:31.614Z,0.53
2023-03-27T02:55:31.619Z,0.52
2023-03-27T02:59:31.519Z,0.51
2023-03-27T03:03:31.521Z,0.51
2023-03-27T03:07:31.707Z,0.51
2023-03-27T03:11:31.387Z,0.52
2023-03-27T03:15:31.627Z,0.51
2023-03-27T03:19:31.348Z,0.52
2023-03-27T03:23:31.633Z,0.52
2023-03-27T03:27:31.643Z,0.51
2023-03-27T03:31:31.290Z,0.52
2023-03-27T03:35:31.691Z,0.51
2023-03-27T03:39:31.175Z,0.51
2023-03-27T03:43:31.141Z,0.52
2023-03-27T03:47:31.152Z,0.52
2023-03-27T03:51:31.028Z,0.52
2023-03-27T03:55:31.173Z,0.51
2023-03-27T03:59:30.944Z,0.51
2023-03-27T04:03:31.023Z,0.51
2023-03-27T04:07:31.126Z,0.51
2023-03-27T04:11:30.846Z,0.52
2023-03-27T04:15:31.149Z,0.51
2023-03-27T04:19:30.746Z,0.52
2023-03-27T04:23:31.176Z,0.51
2023-03-27T04:27:31.166Z,0.51
2023-03-27T04:31:30.882Z,0.52
2023-03-27T04:35:30.894Z,0.51
2023-03-27T04:39:30.871Z,0.51
2023-03-27T04:43:31.144Z,0.53
2023-03-27T04:47:31.333Z,0.52
2023-03-27T04:51:31.178Z,0.53
2023-03-27T04:55:31.046Z,0.53
2023-03-27T04:59:31.160Z,0.53
2023-03-27T05:03:31.146Z,0.53
2023-03-27T05:07:31.132Z,0.53
2023-03-27T05:11:31.201Z,0.53
2023-03-27T05:15:31.653Z,0.53
2023-03-27T05:19:31.258Z,0.53
2023-03-27T05:23:31.644Z,0.53
2023-03-27T05:27:31.658Z,0.53
2023-03-27T05:31:31.398Z,0.52
2023-03-27T05:35:31.752Z,0.54
2023-03-27T05:39:31.681Z,0.53
2023-03-27T05:43:31.673Z,0.54
2023-03-27T05:47:31.699Z,0.75
2023-03-27T05:51:31.637Z,0.81
2023-03-27T05:55:32.156Z,0.94
2023-03-27T05:59:32.159Z,1.39
2023-03-27T06:03:32.313Z,1.23
2023-03-27T06:07:32.091Z,2.42
2023-03-27T06:11:32.289Z,2.82
2023-03-27T06:15:32.315Z,3.02
2023-03-27T06:19:32.712Z,3.29
2023-03-27T06:23:32.726Z,3.52
2023-03-27T06:27:32.498Z,3.78
2023-03-27T06:31:33.237Z,3.96
2023-03-27T06:35:33.198Z,4.01
2023-03-27T06:39:32.645Z,4.26
2023-03-27T06:43:32.697Z,4.11
2023-03-27T06:47:36.382Z,4.60
2023-03-27T06:51:33.890Z,2.60
2023-03-27T06:55:32.689Z,0.91
2023-03-27T06:59:32.711Z,1.31
2023-03-27T07:03:32.718Z,1.72
2023-03-27T07:07:32.511Z,1.83
2023-03-27T07:11:32.694Z,2.03
2023-03-27T07:15:32.687Z,2.12
2023-03-27T07:19:33.210Z,2.24
2023-03-27T07:23:33.344Z,2.33
2023-03-27T07:27:33.302Z,2.38
2023-03-27T07:31:51.560Z,2.63
2023-03-27T07:35:34.775Z,2.72
2023-03-27T07:39:33.685Z,2.78
2023-03-27T07:43:33.713Z,2.29
2023-03-27T07:47:33.445Z,1.70
2023-03-27T07:51:33.771Z,2.80
2023-03-27T07:55:33.710Z,4.31
2023-03-27T07:59:33.724Z,5.29
2023-03-27T08:03:33.947Z,6.05
2023-03-27T08:07:33.932Z,6.62
2023-03-27T08:11:34.291Z,6.99
2023-03-27T08:15:33.979Z,7.24
2023-03-27T08:19:33.989Z,7.31
2023-03-27T08:23:34.089Z,7.61
2023-03-27T08:27:34.213Z,7.71
2023-03-27T08:31:34.381Z,7.85
2023-03-27T08:35:34.615Z,7.84
2023-03-27T08:39:34.783Z,8.06
2023-03-27T08:43:34.891Z,7.61
2023-03-27T08:47:35.043Z,3.04
2023-03-27T08:51:35.104Z,4.38
2023-03-27T08:55:35.109Z,5.71
2023-03-27T08:59:35.353Z,2.94
2023-03-27T09:03:35.507Z,2.29
2023-03-27T09:07:35.501Z,2.79
2023-03-27T09:11:35.589Z,2.88
2023-03-27T09:15:35.813Z,2.85
2023-03-27T09:19:35.892Z,2.97
2023-03-27T09:23:36.032Z,3.06
2023-03-27T09:27:36.156Z,3.07
2023-03-27T09:31:36.373Z,3.19
2023-03-27T09:35:36.360Z,3.12
2023-03-27T09:39:36.410Z,3.21
2023-03-27T09:43:36.488Z,3.01
2023-03-27T09:47:36.610Z,0.71
2023-03-27T09:51:36.611Z,1.36
2023-03-27T09:55:36.793Z,1.46
2023-03-27T09:59:36.874Z,1.38
2023-03-27T10:03:37.149Z,1.23
2023-03-27T10:07:37.255Z,1.22
2023-03-27T10:11:37.245Z,1.08
2023-03-27T10:15:37.051Z,1.06
2023-03-27T10:19:37.289Z,0.92
2023-03-27T10:23:37.910Z,0.92
2023-03-27T10:27:37.768Z,0.89
2023-03-27T10:31:38.008Z,0.84
2023-03-27T10:35:37.670Z,0.76
2023-03-27T10:39:37.784Z,0.69
2023-03-27T10:43:38.251Z,0.74
2023-03-27T10:47:38.286Z,0.88
2023-03-27T10:51:46.021Z,0.93
2023-03-27T10:55:38.988Z,0.97
2023-03-27T10:59:41.843Z,1.02
2023-03-27T11:03:38.389Z,1.04
2023-03-27T11:07:38.292Z,1.13
2023-03-27T11:11:37.887Z,1.09
2023-03-27T11:15:38.292Z,1.15
2023-03-27T11:19:38.296Z,1.11
2023-03-27T11:23:37.781Z,1.24
2023-03-27T11:27:37.814Z,1.24
2023-03-27T11:31:37.734Z,1.36
2023-03-27T11:35:38.318Z,0.81
2023-03-27T11:39:38.279Z,0.97
2023-03-27T11:43:38.305Z,0.89
2023-03-27T11:47:38.038Z,1.02
2023-03-27T11:51:38.063Z,1.02
2023-03-27T11:55:38.321Z,1.05
2023-03-27T11:59:38.290Z,1.05
2023-03-27T12:03:38.189Z,1.02
2023-03-27T12:07:40.568Z,1.05
2023-03-27T12:11:39.294Z,1.04
2023-03-27T12:15:38.313Z,1.04
2023-03-27T12:19:39.211Z,1.02
2023-03-27T12:23:38.426Z,0.99
2023-03-27T12:27:38.554Z,0.97
2023-03-27T12:31:38.885Z,1.02
2023-03-27T12:35:39.320Z,1.03
2023-03-27T12:39:39.727Z,1.02
2023-03-27T12:43:39.064Z,0.98
2023-03-27T12:47:39.168Z,0.99
2023-03-27T12:51:39.208Z,1.02
2023-03-27T12:55:39.326Z,1.06
2023-03-27T12:59:39.372Z,1.05
2023-03-27T13:03:46.910Z,1.03
2023-03-27T13:07:39.486Z,1.02
2023-03-27T13:11:39.856Z,1.00
2023-03-27T13:15:39.421Z,0.99
2023-03-27T13:19:39.854Z,0.98
2023-03-27T13:23:39.309Z,0.98
2023-03-27T13:27:39.369Z,0.99
2023-03-27T13:31:39.397Z,0.99
2023-03-27T13:35:39.199Z,0.91
2023-03-27T13:39:39.359Z,0.93
2023-03-27T13:43:39.127Z,0.92
2023-03-27T13:47:39.858Z,0.90
2023-03-27T13:51:39.388Z,0.87
2023-03-27T13:55:39.294Z,0.88
2023-03-27T13:59:39.378Z,0.89
2023-03-27T14:03:39.441Z,0.92
2023-03-27T14:07:39.852Z,0.89
2023-03-27T14:11:39.561Z,0.86
2023-03-27T14:15:39.926Z,0.89
2023-03-27T14:19:39.720Z,0.83
2023-03-27T14:23:39.852Z,0.87
2023-03-27T14:27:40.352Z,0.81
2023-03-27T14:31:40.401Z,0.82
2023-03-27T14:35:40.084Z,0.86
2023-03-27T14:39:40.088Z,0.82
2023-03-27T14:43:40.392Z,0.81
2023-03-27T14:47:40.256Z,0.80
2023-03-27T14:51:40.366Z,0.77
2023-03-27T14:55:40.379Z,0.79
2023-03-27T14:59:40.421Z,0.77
2023-03-27T15:03:40.882Z,0.78
2023-03-27T15:07:40.886Z,0.75
2023-03-27T15:11:40.575Z,0.76
2023-03-27T15:15:40.946Z,0.74
2023-03-27T15:19:40.650Z,0.77
2023-03-27T15:23:40.866Z,0.75
2023-03-27T15:27:40.914Z,0.75
2023-03-27T15:31:40.901Z,0.74
2023-03-27T15:35:40.845Z,0.71
2023-03-27T15:39:40.908Z,0.73
2023-03-27T15:43:42.388Z,0.73
2023-03-27T15:47:41.491Z,0.74
2023-03-27T15:51:40.982Z,0.75
2023-03-27T15:55:41.069Z,0.73
2023-03-27T15:59:52.047Z,0.73
2023-03-27T16:03:42.189Z,0.72
2023-03-27T16:07:41.405Z,0.72
2023-03-27T16:11:41.227Z,0.72
2023-03-27T16:15:41.250Z,0.70
2023-03-27T16:19:41.302Z,0.70
2023-03-27T16:23:41.416Z,0.72
2023-03-27T16:27:41.618Z,0.65
2023-03-27T16:31:41.459Z,0.70
2023-03-27T16:35:41.455Z,0.66
2023-03-27T16:39:41.911Z,0.67
2023-03-27T16:43:41.510Z,0.68
2023-03-27T16:47:42.015Z,0.71
2023-03-27T16:51:41.638Z,0.68
2023-03-27T16:55:41.717Z,0.69
2023-03-27T16:59:41.913Z,0.66
2023-03-27T17:03:41.921Z,0.66
2023-03-27T17:07:42.417Z,0.65
2023-03-27T17:11:42.016Z,0.66
2023-03-27T17:15:42.398Z,0.67
2023-03-27T17:19:42.392Z,0.66
2023-03-27T17:23:42.425Z,0.65
2023-03-27T17:27:42.431Z,0.65
2023-03-27T17:31:42.530Z,0.65
2023-03-27T17:35:42.999Z,0.63
2023-03-27T17:39:42.918Z,0.64
2023-03-27T17:43:42.960Z,0.62
2023-03-27T17:47:42.991Z,0.64
2023-03-27T17:51:42.743Z,0.63
2023-03-27T17:55:42.930Z,0.63
2023-03-27T17:59:42.935Z,0.61
2023-03-27T18:03:42.911Z,0.61
2023-03-27T18:07:42.945Z,0.63
2023-03-27T18:11:42.884Z,0.60
2023-03-27T18:15:43.506Z,0.62
2023-03-27T18:19:43.446Z,0.63
2023-03-27T18:23:46.389Z,0.62
2023-03-27T18:27:43.937Z,0.62
2023-03-27T18:31:42.980Z,0.59
2023-03-27T18:35:42.971Z,0.59
2023-03-27T18:39:42.872Z,0.62
2023-03-27T18:43:42.981Z,0.60
2023-03-27T18:47:42.795Z,0.61
2023-03-27T18:51:42.945Z,0.60
2023-03-27T18:55:42.986Z,0.59
2023-03-27T18:59:42.978Z,0.59
2023-03-27T19:03:42.951Z,0.59
2023-03-27T19:07:44.322Z,0.58
2023-03-27T19:11:42.959Z,0.60
2023-03-27T19:15:42.954Z,0.60
2023-03-27T19:19:43.893Z,0.59
2023-03-27T19:23:42.470Z,0.58
2023-03-27T19:27:42.457Z,0.58
2023-03-27T19:31:42.476Z,0.58
2023-03-27T19:35:42.482Z,0.59
2023-03-27T19:39:42.465Z,0.59
2023-03-27T19:43:42.466Z,0.59
2023-03-27T19:47:42.326Z,0.58
2023-03-27T19:51:42.509Z,0.57
2023-03-27T19:55:42.483Z,0.56
2023-03-27T19:59:42.468Z,0.58
2023-03-27T20:03:42.249Z,0.57
2023-03-27T20:07:42.099Z,0.58
2023-03-27T20:11:42.473Z,0.57
2023-03-27T20:15:42.017Z,0.59
2023-03-27T20:19:41.990Z,0.53
2023-03-27T20:23:41.995Z,0.57
2023-03-27T20:27:41.998Z,0.57
2023-03-27T20:31:42.040Z,0.55
2023-03-27T20:35:41.830Z,0.54
2023-03-27T20:39:42.008Z,0.55
2023-03-27T20:43:41.734Z,0.57
2023-03-27T20:47:42.043Z,0.55
2023-03-27T20:51:42.003Z,0.55
2023-03-27T20:55:53.132Z,0.56
2023-03-27T20:59:42.650Z,0.55
2023-03-27T21:03:41.763Z,0.56
2023-03-27T21:07:42.016Z,0.56
2023-03-27T21:11:42.057Z,0.56
2023-03-27T21:15:42.006Z,0.54
2023-03-27T21:19:41.909Z,0.54
2023-03-27T21:23:42.547Z,0.55
2023-03-27T21:27:41.992Z,0.54
2023-03-27T21:31:42.194Z,0.53
2023-03-27T21:35:42.504Z,0.54
2023-03-27T21:39:42.079Z,0.55
2023-03-27T21:43:42.531Z,0.54
2023-03-27T21:47:47.647Z,0.54
2023-03-27T21:51:43.522Z,0.55
2023-03-27T21:55:42.580Z,0.54
2023-03-27T21:59:42.350Z,0.53
2023-03-27T22:03:42.366Z,0.53
2023-03-27T22:07:42.506Z,0.52
2023-03-27T22:11:42.569Z,0.53
2023-03-27T22:15:42.547Z,0.54
2023-03-27T22:19:42.473Z,0.54
2023-03-27T22:23:42.594Z,0.53
2023-03-27T22:27:42.535Z,0.52
2023-03-27T22:31:43.707Z,0.54
2023-03-27T22:35:43.068Z,0.54
2023-03-27T22:39:42.649Z,0.54
2023-03-27T22:43:43.033Z,0.53
2023-03-27T22:47:43.071Z,0.53
2023-03-27T22:51:43.037Z,0.51
2023-03-27T22:55:42.926Z,0.55
2023-03-27T22:59:43.023Z,0.54
2023-03-27T23:03:43.175Z,0.53
2023-03-27T23:07:43.540Z,0.54
2023-03-27T23:11:43.559Z,0.51
2023-03-27T23:15:43.221Z,0.52
2023-03-27T23:19:43.543Z,0.51
2023-03-27T23:23:43.266Z,0.55
2023-03-27T23:27:43.563Z,0.52
2023-03-27T23:31:43.598Z,0.55
2023-03-27T23:35:43.440Z,0.54
2023-03-27T23:39:43.536Z,0.55
2023-03-27T23:43:43.536Z,0.51
2023-03-27T23:47:44.083Z,0.53
2023-03-27T23:51:43.635Z,0.54
2023-03-27T23:55:44.052Z,0.51
2023-03-27T23:59:43.756Z,0.53
